Okayama, Japan

10:29 AM JST on October 25, 2014 (GMT +0900)
Okayama | Change Station
CLOSE
Current Station
Airport
Location: Okayama,
Elevation: 794 ft
Nearby Weather Stations

Elev 794 ft 34.76 °N, 133.86 °E | Updated 29 minutes ago

Mostly Cloudy
Mostly Cloudy
63 °F
Feels Like 63 °F
N
4
Wind Variable Wind from Variable

Today
High -- | Low -- °F
--% Chance of Precip.
Yesterday
High -- | Low -- °F
Precip. -- in
6:17 AM 5:18 PM
New Moon, 1% visible
Pressure 30.21 in
Visibility 6.2 miles
Clouds Few 1000 ft
Mostly Cloudy 9000 ft
Dew Point 55 °F
Humidity 77%
Rainfall 0.00 in
Snow Depth Not available.
UV 3 out of 12
Pollen Not available.
Air Quality Not available.
Flu Activity Not available.
METAR RJOB 250100Z VRB03KT 9999 FEW010 BKN090 17/13 Q1023

More Conditions Fewer Conditions

Pressure 30.21 in
Visibility 6.2 miles
Clouds Few 1000 ft
Mostly Cloudy 9000 ft
Dew Point 55 °F
Humidity 77%
Rainfall 0.00 in
Snow Depth Not available.
UV 3 out of 12
Pollen Not available.
Air Quality Not available.
Flu Activity Not available.
METAR RJOB 250100Z VRB03KT 9999 FEW010 BKN090 17/13 Q1023

More Conditions Fewer Conditions

10-Day Weather Forecast

Almanac

Astronomy

Oct. 25, 2014 Rise Set
Actual Time 6:17 AM JST 5:18 PM JST
Civil Twilight 5:52 AM JST 5:44 PM JST
Nautical Twilight 5:22 AM JST 6:13 PM JST
Astronomical Twilight 4:53 AM JST 6:42 PM JST
Moon 7:17 AM JST 6:16 PM JST
Length of Visible Light 11h 51m
Length of Day
11h 00m
Tomorrow will be 2m 0s shorter.
New Moon, 1% of the Moon is Illuminated
Oct 24
New Moon
Oct 30
First Quarter
Nov 6
Full
Nov 14
Last Quarter
Nov 22
New

Yesterday's Extremes

Country Highs Country Lows

Community

WunderPhotos

Upload Photos

1,764,741 photos uploaded!

WunderBlogs® & News

Nearby

Snow Depth

Not available.

Earthquake Activity

City Distance Mag. Time & Date
No recent earthquake activity has been reported nearby.
Minimum magnitude displayed is 2.5.

Coastal Water Temperatures

Place Temperature
No Stations Reporting

Nearby Weather Stations